createdAt,value
2022-12-29T00:01:56.794Z,1.95
2022-12-29T00:03:58.877Z,1.98
2022-12-29T00:06:01.152Z,1.58
2022-12-29T00:08:02.774Z,2.15
2022-12-29T00:10:05.163Z,1.42
2022-12-29T00:12:06.890Z,2.33
2022-12-29T00:14:29.832Z,1.60
2022-12-29T00:16:32.716Z,2.17
2022-12-29T00:18:34.502Z,1.55
2022-12-29T00:20:56.079Z,1.63
2022-12-29T00:23:24.180Z,1.40
2022-12-29T00:25:44.430Z,2.30
2022-12-29T00:28:07.792Z,1.90
2022-12-29T00:30:32.416Z,1.63
2022-12-29T00:32:52.945Z,3.20
2022-12-29T00:35:09.966Z,1.27
2022-12-29T00:37:11.607Z,1.67
2022-12-29T00:39:37.639Z,2.35
2022-12-29T00:41:57.867Z,2.35
2022-12-29T00:44:10.969Z,1.42
2022-12-29T00:46:19.279Z,1.40
2022-12-29T00:48:41.464Z,1.80
2022-12-29T00:50:43.113Z,2.08
2022-12-29T00:52:44.769Z,1.52
2022-12-29T00:54:46.444Z,1.30
2022-12-29T00:56:49.530Z,1.42
2022-12-29T00:58:51.162Z,1.88
2022-12-29T01:00:52.808Z,1.20
2022-12-29T01:02:54.628Z,1.35
2022-12-29T01:04:56.293Z,2.22
2022-12-29T01:06:58.028Z,1.38
2022-12-29T01:09:18.072Z,1.42
2022-12-29T01:11:19.749Z,1.50
2022-12-29T01:13:21.393Z,1.30
2022-12-29T01:15:23.516Z,1.58
2022-12-29T01:17:25.201Z,1.40
2022-12-29T01:19:27.163Z,3.97
2022-12-29T01:21:28.913Z,1.48
2022-12-29T01:23:31.054Z,1.50
2022-12-29T01:25:32.660Z,3.05
2022-12-29T01:27:34.242Z,2.40
2022-12-29T01:29:35.840Z,2.05
2022-12-29T01:31:38.169Z,1.35
2022-12-29T01:33:39.805Z,1.30
2022-12-29T01:35:41.444Z,1.92
2022-12-29T01:37:43.143Z,1.30
2022-12-29T01:39:44.777Z,1.45
2022-12-29T01:41:46.408Z,2.25
2022-12-29T01:44:02.719Z,1.30
2022-12-29T01:46:04.608Z,2.13
2022-12-29T01:48:09.632Z,1.20
2022-12-29T01:50:31.492Z,1.45
2022-12-29T01:52:35.980Z,1.88
2022-12-29T01:54:50.223Z,2.78
2022-12-29T01:56:54.288Z,1.08
2022-12-29T01:59:05.558Z,1.60
2022-12-29T02:01:07.581Z,1.35
2022-12-29T02:03:10.674Z,1.30
2022-12-29T02:05:40.408Z,1.58
2022-12-29T02:07:42.821Z,5.30
2022-12-29T02:09:47.341Z,1.48
2022-12-29T02:11:49.015Z,1.20
2022-12-29T02:13:50.719Z,1.05
2022-12-29T02:16:26.126Z,1.35
2022-12-29T02:18:44.723Z,3.33
2022-12-29T02:21:13.991Z,2.75
2022-12-29T02:24:00.017Z,1.13
2022-12-29T02:26:41.902Z,1.45
2022-12-29T02:29:14.142Z,1.23
2022-12-29T02:31:44.816Z,1.80
2022-12-29T02:34:20.102Z,1.02
2022-12-29T02:36:45.999Z,1.50
2022-12-29T02:39:00.253Z,3.30
2022-12-29T02:41:30.843Z,0.90
2022-12-29T02:43:55.150Z,1.23
2022-12-29T02:46:03.063Z,1.40
2022-12-29T02:48:26.361Z,2.92
2022-12-29T02:50:35.851Z,1.30
2022-12-29T02:52:47.036Z,1.10
2022-12-29T02:56:55.688Z,1.10
2022-12-29T02:58:57.350Z,0.90
2022-12-29T03:01:23.838Z,0.80
2022-12-29T03:03:54.503Z,1.00
2022-12-29T03:06:07.284Z,0.93
2022-12-29T03:08:30.707Z,1.48
2022-12-29T03:10:56.825Z,0.80
2022-12-29T03:13:35.514Z,1.30
2022-12-29T03:16:04.665Z,1.00
2022-12-29T03:18:13.750Z,1.33
2022-12-29T03:20:21.499Z,1.00
2022-12-29T03:22:31.662Z,2.00
2022-12-29T03:24:41.010Z,0.90
2022-12-29T03:26:44.939Z,4.55
2022-12-29T03:28:52.757Z,1.10
2022-12-29T03:30:54.981Z,2.20
2022-12-29T03:33:00.882Z,1.13
2022-12-29T03:35:04.026Z,0.95
2022-12-29T03:37:16.276Z,1.13
2022-12-29T03:39:23.160Z,1.10
2022-12-29T03:41:29.914Z,0.90
2022-12-29T03:43:31.793Z,1.10
2022-12-29T03:45:33.419Z,1.10
2022-12-29T03:47:35.072Z,1.00
2022-12-29T03:49:36.803Z,1.25
2022-12-29T03:51:38.430Z,0.90
2022-12-29T03:53:40.082Z,1.75
2022-12-29T03:55:41.706Z,1.30
2022-12-29T03:57:43.437Z,2.65
2022-12-29T03:59:45.086Z,1.02
2022-12-29T04:01:47.411Z,2.40
2022-12-29T04:03:49.337Z,1.00
2022-12-29T04:05:50.977Z,0.85
2022-12-29T04:07:52.663Z,1.20
2022-12-29T04:09:54.288Z,1.23
2022-12-29T04:11:55.895Z,1.52
2022-12-29T04:13:57.506Z,0.90
2022-12-29T04:15:59.143Z,0.90
2022-12-29T04:18:00.871Z,1.10
2022-12-29T04:20:21.240Z,2.42
2022-12-29T04:22:22.921Z,0.90
2022-12-29T04:24:24.686Z,0.88
2022-12-29T04:26:26.527Z,0.95
2022-12-29T04:28:28.437Z,0.80
2022-12-29T04:30:30.160Z,1.13
2022-12-29T04:32:31.824Z,0.82
2022-12-29T04:34:33.465Z,2.03
2022-12-29T04:36:35.461Z,1.00
2022-12-29T04:38:37.121Z,1.20
2022-12-29T04:40:44.066Z,1.15
2022-12-29T04:42:45.680Z,0.80
2022-12-29T04:44:47.378Z,1.48
2022-12-29T04:46:49.084Z,1.00
2022-12-29T04:48:50.844Z,0.82
2022-12-29T04:50:52.640Z,0.85
2022-12-29T04:52:54.656Z,1.85
2022-12-29T04:54:56.341Z,1.08
2022-12-29T04:56:57.992Z,1.70
2022-12-29T04:58:59.712Z,1.23
2022-12-29T05:01:01.431Z,0.80
2022-12-29T05:03:03.287Z,1.05
2022-12-29T05:05:05.993Z,1.02
2022-12-29T05:07:07.667Z,0.70
2022-12-29T05:09:09.326Z,0.73
2022-12-29T05:11:10.931Z,0.80
2022-12-29T05:13:12.610Z,1.38
2022-12-29T05:15:14.529Z,0.65
2022-12-29T05:17:16.255Z,0.70
2022-12-29T05:19:18.348Z,1.05
2022-12-29T05:21:20.283Z,0.80
2022-12-29T05:23:22.168Z,1.83
2022-12-29T05:25:23.803Z,0.77
2022-12-29T05:27:25.444Z,0.98
2022-12-29T05:29:27.046Z,1.52
2022-12-29T05:31:28.774Z,2.15
2022-12-29T05:33:30.782Z,1.55
2022-12-29T05:35:33.249Z,1.13
2022-12-29T05:37:34.923Z,1.65
2022-12-29T05:39:36.589Z,0.95
2022-12-29T05:41:38.234Z,5.85
2022-12-29T05:43:39.914Z,1.52
2022-12-29T05:45:41.650Z,2.50
2022-12-29T05:47:43.323Z,1.83
2022-12-29T05:49:44.995Z,4.10
2022-12-29T05:51:46.672Z,6.97
2022-12-29T05:53:48.300Z,4.97
2022-12-29T05:55:50.469Z,8.70
2022-12-29T05:57:52.060Z,4.40
2022-12-29T05:59:53.685Z,8.70
2022-12-29T06:01:55.387Z,4.35
2022-12-29T06:03:57.231Z,3.67
2022-12-29T06:05:58.956Z,2.25
2022-12-29T06:08:00.668Z,6.80
2022-12-29T06:10:02.529Z,2.67
2022-12-29T06:12:04.586Z,4.18
2022-12-29T06:14:06.299Z,3.72
2022-12-29T06:16:08.239Z,1.40
2022-12-29T06:18:13.765Z,0.98
2022-12-29T06:20:21.216Z,6.72
2022-12-29T06:22:22.854Z,2.78
2022-12-29T06:24:24.523Z,2.28
2022-12-29T06:26:26.152Z,0.90
2022-12-29T06:28:29.060Z,2.08
2022-12-29T06:30:30.812Z,2.50
2022-12-29T06:32:32.433Z,1.40
2022-12-29T06:34:34.108Z,2.58
2022-12-29T06:36:35.918Z,2.17
2022-12-29T06:38:37.546Z,1.33
2022-12-29T06:40:39.185Z,1.77
2022-12-29T06:42:40.870Z,4.07
2022-12-29T06:44:42.521Z,1.70
2022-12-29T06:46:44.178Z,3.15
2022-12-29T06:48:45.834Z,7.32
2022-12-29T06:50:47.520Z,1.25
2022-12-29T06:52:49.139Z,4.85
2022-12-29T06:54:51.125Z,3.35
2022-12-29T06:56:53.053Z,4.32
2022-12-29T06:58:54.685Z,9.05
2022-12-29T07:00:56.274Z,5.75
2022-12-29T07:03:01.087Z,3.42
2022-12-29T07:05:02.859Z,1.45
2022-12-29T07:07:04.497Z,2.25
2022-12-29T07:09:06.171Z,3.70
2022-12-29T07:11:07.928Z,14.80
2022-12-29T07:13:09.594Z,5.40
2022-12-29T07:15:11.538Z,3.35
2022-12-29T07:17:13.325Z,2.47
2022-12-29T07:19:15.136Z,4.03
2022-12-29T07:21:17.314Z,3.10
2022-12-29T07:23:18.977Z,4.20
2022-12-29T07:25:20.659Z,10.00
2022-12-29T07:27:22.524Z,6.95
2022-12-29T07:29:24.247Z,13.80
2022-12-29T07:31:25.951Z,16.48
2022-12-29T07:33:30.311Z,16.45
2022-12-29T07:35:31.999Z,7.60
2022-12-29T07:37:34.433Z,12.02
2022-12-29T07:39:36.080Z,8.55
2022-12-29T07:41:37.837Z,4.85
2022-12-29T07:43:39.685Z,8.30
2022-12-29T07:45:41.393Z,8.00
2022-12-29T07:47:43.031Z,15.10
2022-12-29T07:49:44.655Z,15.18
2022-12-29T07:51:46.274Z,15.90
2022-12-29T07:53:47.927Z,21.08
2022-12-29T07:55:49.578Z,11.43
2022-12-29T07:57:53.439Z,8.23
2022-12-29T07:59:55.087Z,11.50
2022-12-29T08:01:56.875Z,10.95
2022-12-29T08:03:58.635Z,9.15
2022-12-29T08:06:00.349Z,7.28
2022-12-29T08:08:02.024Z,4.13
2022-12-29T08:10:04.014Z,7.50
2022-12-29T08:12:05.889Z,9.32
2022-12-29T08:14:07.729Z,8.70
2022-12-29T08:16:09.464Z,3.80
2022-12-29T08:18:11.305Z,7.72
2022-12-29T08:20:12.967Z,7.50
2022-12-29T08:22:15.660Z,6.38
2022-12-29T08:24:17.388Z,3.10
2022-12-29T08:26:19.062Z,6.85
2022-12-29T08:28:20.686Z,4.70
2022-12-29T08:30:22.429Z,10.70
2022-12-29T08:32:24.150Z,4.72
2022-12-29T08:34:25.910Z,4.63
2022-12-29T08:36:28.215Z,6.03
2022-12-29T08:38:30.702Z,16.25
2022-12-29T08:40:32.359Z,18.35
2022-12-29T08:42:34.615Z,16.85
2022-12-29T08:44:36.237Z,14.50
2022-12-29T08:46:37.911Z,16.08
2022-12-29T08:48:39.602Z,16.38
2022-12-29T08:50:41.236Z,11.52
2022-12-29T08:52:42.917Z,17.65
2022-12-29T08:54:44.612Z,14.18
2022-12-29T08:56:46.263Z,11.75
2022-12-29T08:58:47.865Z,14.38
2022-12-29T09:00:49.467Z,10.18
2022-12-29T09:02:51.327Z,13.85
2022-12-29T09:04:53.306Z,12.73
2022-12-29T09:06:55.185Z,10.20
2022-12-29T09:08:57.154Z,20.60
2022-12-29T09:11:10.807Z,13.77
2022-12-29T09:13:13.805Z,17.85
2022-12-29T09:15:16.583Z,13.10
2022-12-29T09:17:37.054Z,40.78
2022-12-29T09:19:38.774Z,42.70
2022-12-29T09:21:40.450Z,45.75
2022-12-29T09:23:42.169Z,47.90
2022-12-29T09:25:44.558Z,31.33
2022-12-29T09:27:48.593Z,35.65
2022-12-29T09:29:50.234Z,34.25
2022-12-29T09:31:51.893Z,36.50
2022-12-29T09:33:53.634Z,33.28
2022-12-29T09:35:58.560Z,38.17
2022-12-29T09:38:00.295Z,29.17
2022-12-29T09:40:01.985Z,33.63
2022-12-29T09:42:24.937Z,27.17
2022-12-29T09:45:09.657Z,29.48
2022-12-29T09:47:14.744Z,27.42
2022-12-29T09:49:40.830Z,29.33
2022-12-29T09:51:45.863Z,30.63
2022-12-29T09:54:05.086Z,27.60
2022-12-29T09:56:19.346Z,30.67
2022-12-29T09:58:33.193Z,29.55
2022-12-29T10:01:11.674Z,24.67
2022-12-29T10:03:17.491Z,25.73
2022-12-29T10:06:03.253Z,24.42
2022-12-29T10:08:27.579Z,24.42
2022-12-29T10:10:38.980Z,31.65
2022-12-29T10:12:58.740Z,21.80
2022-12-29T10:15:09.706Z,24.13
2022-12-29T10:17:39.166Z,20.63
2022-12-29T10:20:12.789Z,22.08
2022-12-29T10:22:38.741Z,19.88
2022-12-29T10:24:41.578Z,21.30
2022-12-29T10:26:45.080Z,16.52
2022-12-29T10:28:55.671Z,19.15
2022-12-29T10:31:05.055Z,19.45
2022-12-29T10:33:16.888Z,26.95
2022-12-29T10:35:25.131Z,29.00
2022-12-29T10:37:39.801Z,27.15
2022-12-29T10:39:50.475Z,31.05
2022-12-29T10:42:21.830Z,35.00
2022-12-29T10:46:33.916Z,33.20
2022-12-29T10:48:36.498Z,32.50
2022-12-29T10:50:43.746Z,26.15
2022-12-29T10:52:45.458Z,26.80
2022-12-29T10:55:04.213Z,26.80
2022-12-29T10:57:34.712Z,25.88
2022-12-29T10:59:38.333Z,30.57
2022-12-29T11:01:51.786Z,25.65
2022-12-29T11:04:05.014Z,21.60
2022-12-29T11:06:24.956Z,24.02
2022-12-29T11:08:32.285Z,26.60
2022-12-29T11:10:33.918Z,21.10
2022-12-29T11:12:37.283Z,24.52
2022-12-29T11:14:40.309Z,31.50
2022-12-29T11:16:45.065Z,29.10
2022-12-29T11:18:47.843Z,19.58
2022-12-29T11:20:52.522Z,26.98
2022-12-29T11:22:54.181Z,23.80
2022-12-29T11:25:07.615Z,19.10
2022-12-29T11:27:23.619Z,19.08
2022-12-29T11:29:37.632Z,18.02
2022-12-29T11:31:55.607Z,32.58
2022-12-29T11:33:57.321Z,22.60
2022-12-29T11:36:03.311Z,20.20
2022-12-29T11:38:05.613Z,25.90
2022-12-29T11:40:21.474Z,19.88
2022-12-29T11:42:37.098Z,20.02
2022-12-29T11:44:44.496Z,29.35
2022-12-29T11:46:50.942Z,24.30
2022-12-29T11:48:53.898Z,33.97
2022-12-29T11:51:01.938Z,26.80
2022-12-29T11:53:31.708Z,22.30
2022-12-29T11:55:33.706Z,24.02
2022-12-29T11:57:36.205Z,21.20
2022-12-29T11:59:42.363Z,33.83
2022-12-29T12:01:45.369Z,23.55
2022-12-29T12:04:07.758Z,30.33
2022-12-29T12:06:17.430Z,26.60
2022-12-29T12:08:25.157Z,30.38
2022-12-29T12:10:43.351Z,21.88
2022-12-29T12:13:02.877Z,23.27
2022-12-29T12:15:05.202Z,17.63
2022-12-29T12:17:18.533Z,22.92
2022-12-29T12:19:37.746Z,17.60
2022-12-29T12:21:45.451Z,17.98
2022-12-29T12:24:10.464Z,20.20
2022-12-29T12:26:23.015Z,16.85
2022-12-29T12:28:38.361Z,16.02
2022-12-29T12:30:48.692Z,19.92
2022-12-29T12:32:59.641Z,19.73
2022-12-29T12:35:02.551Z,22.75
2022-12-29T12:37:27.158Z,12.10
2022-12-29T12:40:05.225Z,11.50
2022-12-29T12:42:26.829Z,14.13
2022-12-29T12:44:28.420Z,10.68
2022-12-29T12:46:49.088Z,12.48
2022-12-29T12:49:09.084Z,17.35
2022-12-29T12:51:44.506Z,11.73
2022-12-29T12:54:16.968Z,10.65
2022-12-29T12:56:56.443Z,11.00
2022-12-29T12:59:35.524Z,9.27
2022-12-29T13:01:48.030Z,6.63
2022-12-29T13:04:05.118Z,9.70
2022-12-29T13:06:33.033Z,10.38
2022-12-29T13:09:12.546Z,9.32
2022-12-29T13:11:34.584Z,8.35
2022-12-29T13:13:54.740Z,9.90
2022-12-29T13:16:01.687Z,10.73
2022-12-29T13:18:32.026Z,8.82
2022-12-29T13:20:50.797Z,8.60
2022-12-29T13:23:29.987Z,7.18
2022-12-29T13:25:58.932Z,9.25
2022-12-29T13:28:08.127Z,6.00
2022-12-29T13:30:21.607Z,7.03
2022-12-29T13:32:51.369Z,9.30
2022-12-29T13:35:05.606Z,6.68
2022-12-29T13:37:17.989Z,4.90
2022-12-29T13:39:37.218Z,9.32
2022-12-29T13:41:52.728Z,6.78
2022-12-29T13:43:55.830Z,5.07
2022-12-29T13:46:08.181Z,7.35
2022-12-29T13:48:22.665Z,7.00
2022-12-29T13:50:27.643Z,7.05
2022-12-29T13:53:06.598Z,5.72
2022-12-29T13:55:42.388Z,5.07
2022-12-29T13:58:06.561Z,4.15
2022-12-29T14:00:13.843Z,8.40
2022-12-29T14:02:47.975Z,6.05
2022-12-29T14:05:01.669Z,6.32
2022-12-29T14:07:06.026Z,5.72
2022-12-29T14:09:35.111Z,3.35
2022-12-29T14:11:39.748Z,5.38
2022-12-29T14:13:44.396Z,3.60
2022-12-29T14:15:52.891Z,4.10
2022-12-29T14:18:04.885Z,3.65
2022-12-29T14:20:17.933Z,6.50
2022-12-29T14:22:32.890Z,6.25
2022-12-29T14:24:35.634Z,3.78
2022-12-29T14:26:37.508Z,3.38
2022-12-29T14:28:41.803Z,6.40
2022-12-29T14:30:52.198Z,2.53
2022-12-29T14:33:14.195Z,3.03
2022-12-29T14:35:39.631Z,3.35
2022-12-29T14:37:41.329Z,3.08
2022-12-29T14:39:45.281Z,4.30
2022-12-29T14:41:47.150Z,3.05
2022-12-29T14:44:14.481Z,4.28
2022-12-29T14:46:16.151Z,3.50
2022-12-29T14:48:44.487Z,3.33
2022-12-29T14:50:46.757Z,3.72
2022-12-29T14:52:49.682Z,3.13
2022-12-29T14:55:07.621Z,2.70
2022-12-29T14:57:20.729Z,5.13
2022-12-29T14:59:23.662Z,3.65
2022-12-29T15:01:50.902Z,2.65
2022-12-29T15:03:56.824Z,2.95
2022-12-29T15:06:09.692Z,2.63
2022-12-29T15:08:14.216Z,5.00
2022-12-29T15:10:20.527Z,1.88
2022-12-29T15:12:34.116Z,3.97
2022-12-29T15:14:49.640Z,2.47
2022-12-29T15:16:51.329Z,2.55
2022-12-29T15:18:54.104Z,3.25
2022-12-29T15:21:06.664Z,2.78
2022-12-29T15:23:15.771Z,1.70
2022-12-29T15:25:18.632Z,2.60
2022-12-29T15:27:26.039Z,2.08
2022-12-29T15:29:37.139Z,1.50
2022-12-29T15:33:52.278Z,2.38
2022-12-29T15:35:55.954Z,5.18
2022-12-29T15:37:58.389Z,1.67
2022-12-29T15:40:00.134Z,2.38
2022-12-29T15:42:28.032Z,2.40
2022-12-29T15:44:40.316Z,2.40
2022-12-29T15:46:42.085Z,3.92
2022-12-29T15:48:44.182Z,1.40
2022-12-29T15:50:46.985Z,3.15
2022-12-29T15:52:49.161Z,1.52
2022-12-29T15:54:53.308Z,1.85
2022-12-29T15:56:54.980Z,3.20
2022-12-29T15:58:56.884Z,2.35
2022-12-29T16:01:01.622Z,1.90
2022-12-29T16:03:06.213Z,2.15
2022-12-29T16:05:18.240Z,2.38
2022-12-29T16:07:33.276Z,3.05
2022-12-29T16:09:43.717Z,1.42
2022-12-29T16:11:48.869Z,1.38
2022-12-29T16:13:53.655Z,1.40
2022-12-29T16:16:03.337Z,2.45
2022-12-29T16:18:05.361Z,2.15
2022-12-29T16:20:19.238Z,2.88
2022-12-29T16:22:27.612Z,1.40
2022-12-29T16:24:33.664Z,2.05
2022-12-29T16:26:35.368Z,2.40
2022-12-29T16:28:44.404Z,1.48
2022-12-29T16:30:46.120Z,2.42
2022-12-29T16:32:53.468Z,1.33
2022-12-29T16:35:19.515Z,1.63
2022-12-29T16:37:34.218Z,1.30
2022-12-29T16:39:38.009Z,1.08
2022-12-29T16:41:39.607Z,1.25
2022-12-29T16:43:42.737Z,1.63
2022-12-29T16:45:47.556Z,1.40
2022-12-29T16:48:15.361Z,2.20
2022-12-29T16:50:29.570Z,2.03
2022-12-29T16:52:35.308Z,1.70
2022-12-29T16:54:38.796Z,1.08
2022-12-29T16:56:45.302Z,1.17
2022-12-29T16:58:54.541Z,2.17
2022-12-29T17:00:57.851Z,2.50
2022-12-29T17:03:01.739Z,5.97
2022-12-29T17:05:03.645Z,1.40
2022-12-29T17:07:19.437Z,5.05
2022-12-29T17:09:23.410Z,3.08
2022-12-29T17:11:59.350Z,9.43
2022-12-29T17:14:04.428Z,4.60
2022-12-29T17:16:11.523Z,6.68
2022-12-29T17:18:14.220Z,2.78
2022-12-29T17:20:21.164Z,9.82
2022-12-29T17:22:26.257Z,4.32
2022-12-29T17:24:28.153Z,7.07
2022-12-29T17:26:29.820Z,6.85
2022-12-29T17:28:32.787Z,36.08
2022-12-29T17:30:35.989Z,69.97
2022-12-29T17:32:37.887Z,112.05
2022-12-29T17:34:40.852Z,118.85
2022-12-29T17:36:42.603Z,117.28
2022-12-29T17:38:44.205Z,115.15
2022-12-29T17:40:46.270Z,119.93
2022-12-29T17:42:53.978Z,115.15
2022-12-29T17:44:56.007Z,113.53
2022-12-29T17:46:57.673Z,113.97
2022-12-29T17:48:59.401Z,103.22
2022-12-29T17:51:01.461Z,107.13
2022-12-29T17:53:06.197Z,101.88
2022-12-29T17:55:19.046Z,84.63
2022-12-29T17:57:21.560Z,82.35
2022-12-29T17:59:23.315Z,87.30
2022-12-29T18:01:31.056Z,84.80
2022-12-29T18:03:38.829Z,125.38
2022-12-29T18:05:40.679Z,99.55
2022-12-29T18:07:42.389Z,109.43
2022-12-29T18:09:44.086Z,130.55
2022-12-29T18:11:46.023Z,112.13
2022-12-29T18:13:47.635Z,109.95
2022-12-29T18:15:50.216Z,110.53
2022-12-29T18:18:02.861Z,110.75
2022-12-29T18:20:04.894Z,100.78
2022-12-29T18:22:06.510Z,95.85
2022-12-29T18:24:14.398Z,102.90
2022-12-29T18:26:27.611Z,97.65
2022-12-29T18:28:30.580Z,88.57
2022-12-29T18:30:32.245Z,76.20
2022-12-29T18:32:33.889Z,80.70
2022-12-29T18:34:35.520Z,78.97
2022-12-29T18:36:37.172Z,78.32
2022-12-29T18:38:39.007Z,77.07
2022-12-29T18:40:40.664Z,74.38
2022-12-29T18:42:42.361Z,72.90
2022-12-29T18:44:44.060Z,72.05
2022-12-29T18:46:45.725Z,78.75
2022-12-29T18:48:47.669Z,69.88
2022-12-29T18:50:53.272Z,71.57
2022-12-29T18:53:00.048Z,79.75
2022-12-29T18:55:11.942Z,63.73
2022-12-29T18:57:13.588Z,53.45
2022-12-29T18:59:15.202Z,52.35
2022-12-29T19:01:25.393Z,57.30
2022-12-29T19:03:27.185Z,54.00
2022-12-29T19:05:35.064Z,49.35
2022-12-29T19:07:36.683Z,53.38
2022-12-29T19:09:38.364Z,51.58
2022-12-29T19:11:40.292Z,46.55
2022-12-29T19:13:41.966Z,42.42
2022-12-29T19:15:46.590Z,46.65
2022-12-29T19:18:08.287Z,40.20
2022-12-29T19:20:27.490Z,43.00
2022-12-29T19:22:29.234Z,39.63
2022-12-29T19:24:30.853Z,35.35
2022-12-29T19:26:38.493Z,38.60
2022-12-29T19:28:40.093Z,39.85
2022-12-29T19:30:41.753Z,36.17
2022-12-29T19:32:43.967Z,36.60
2022-12-29T19:34:48.680Z,34.83
2022-12-29T19:36:50.296Z,33.40
2022-12-29T19:38:52.305Z,31.88
2022-12-29T19:40:53.969Z,34.58
2022-12-29T19:42:56.787Z,28.40
2022-12-29T19:44:58.585Z,27.10
2022-12-29T19:47:00.428Z,29.75
2022-12-29T19:49:02.078Z,30.23
2022-12-29T19:51:09.716Z,28.55
2022-12-29T19:53:12.133Z,25.30
2022-12-29T19:55:16.035Z,31.58
2022-12-29T19:57:17.979Z,30.92
2022-12-29T19:59:19.631Z,28.63
2022-12-29T20:01:23.491Z,26.52
2022-12-29T20:03:25.348Z,25.23
2022-12-29T20:05:26.977Z,18.88
2022-12-29T20:07:29.142Z,36.83
2022-12-29T20:09:30.750Z,37.33
2022-12-29T20:11:32.424Z,34.60
2022-12-29T20:13:35.968Z,32.60
2022-12-29T20:15:37.920Z,29.70
2022-12-29T20:18:11.541Z,27.80
2022-12-29T20:20:01.254Z,26.55
2022-12-29T20:22:05.447Z,24.55
2022-12-29T20:24:08.116Z,22.85
2022-12-29T20:26:18.591Z,25.30
2022-12-29T20:28:20.279Z,18.77
2022-12-29T20:30:22.025Z,28.77
2022-12-29T20:32:25.223Z,28.63
2022-12-29T20:34:26.894Z,18.17
2022-12-29T20:36:31.657Z,18.58
2022-12-29T20:38:33.269Z,25.00
2022-12-29T20:40:42.369Z,21.00
2022-12-29T20:42:47.667Z,14.52
2022-12-29T20:44:50.734Z,15.88
2022-12-29T20:46:52.462Z,20.00
2022-12-29T20:48:54.380Z,14.52
2022-12-29T20:50:59.348Z,14.43
2022-12-29T20:53:01.055Z,12.52
2022-12-29T20:55:02.937Z,13.57
2022-12-29T20:57:04.608Z,15.35
2022-12-29T20:59:26.855Z,13.98
2022-12-29T21:01:28.238Z,13.40
2022-12-29T21:03:30.335Z,13.07
2022-12-29T21:05:32.034Z,17.00
2022-12-29T21:07:33.696Z,12.65
2022-12-29T21:09:35.370Z,14.88
2022-12-29T21:11:37.072Z,8.13
2022-12-29T21:13:38.711Z,10.68
2022-12-29T21:15:40.488Z,10.88
2022-12-29T21:17:43.464Z,14.45
2022-12-29T21:19:45.195Z,7.97
2022-12-29T21:21:46.904Z,7.85
2022-12-29T21:23:50.047Z,8.13
2022-12-29T21:25:52.948Z,11.43
2022-12-29T21:27:54.590Z,10.60
2022-12-29T21:29:57.949Z,8.77
2022-12-29T21:32:06.447Z,10.80
2022-12-29T21:34:09.626Z,10.05
2022-12-29T21:36:11.300Z,10.00
2022-12-29T21:38:13.520Z,9.75
2022-12-29T21:40:15.184Z,6.85
2022-12-29T21:42:16.902Z,7.80
2022-12-29T21:44:37.250Z,6.30
2022-12-29T21:46:40.862Z,8.20
2022-12-29T21:48:42.502Z,12.38
2022-12-29T21:51:05.631Z,9.13
2022-12-29T21:53:07.217Z,6.70
2022-12-29T21:55:09.186Z,8.68
2022-12-29T21:57:17.851Z,8.05
2022-12-29T21:59:41.486Z,6.20
2022-12-29T22:02:01.930Z,9.60
2022-12-29T22:04:22.200Z,5.90
2022-12-29T22:06:42.608Z,10.60
2022-12-29T22:09:03.043Z,6.93
2022-12-29T22:11:27.427Z,5.15
2022-12-29T22:13:32.005Z,8.00
2022-12-29T22:15:37.133Z,4.88
2022-12-29T22:17:41.313Z,6.45
2022-12-29T22:19:46.746Z,5.47
2022-12-29T22:21:48.426Z,4.00
2022-12-29T22:23:50.093Z,5.93
2022-12-29T22:25:51.845Z,5.38
2022-12-29T22:27:58.996Z,5.03
2022-12-29T22:30:01.441Z,5.95
2022-12-29T22:32:03.084Z,6.72
2022-12-29T22:34:04.999Z,6.63
2022-12-29T22:36:06.964Z,5.90
2022-12-29T22:38:08.603Z,5.03
2022-12-29T22:40:11.312Z,4.00
2022-12-29T22:42:13.013Z,4.88
2022-12-29T22:44:14.656Z,5.68
2022-12-29T22:46:16.481Z,4.00
2022-12-29T22:48:18.143Z,3.78
2022-12-29T22:50:19.876Z,4.55
2022-12-29T22:52:21.674Z,3.35
2022-12-29T22:54:23.424Z,3.40
2022-12-29T22:56:25.080Z,4.32
2022-12-29T22:58:26.684Z,3.72
2022-12-29T23:00:28.313Z,4.95
2022-12-29T23:02:30.330Z,3.63
2022-12-29T23:05:02.854Z,3.53
2022-12-29T23:06:53.913Z,5.32
2022-12-29T23:08:57.822Z,3.65
2022-12-29T23:10:59.432Z,4.97
2022-12-29T23:13:01.128Z,3.50
2022-12-29T23:15:02.837Z,4.28
2022-12-29T23:17:04.476Z,4.88
2022-12-29T23:19:06.288Z,3.75
2022-12-29T23:21:08.262Z,3.75
2022-12-29T23:23:10.131Z,3.85
2022-12-29T23:25:11.726Z,5.50
2022-12-29T23:27:13.858Z,2.67
2022-12-29T23:29:19.060Z,5.90
2022-12-29T23:31:22.020Z,3.15
2022-12-29T23:33:23.691Z,2.35
2022-12-29T23:35:25.637Z,5.13
2022-12-29T23:37:27.303Z,2.95
2022-12-29T23:39:29.485Z,5.00
2022-12-29T23:41:31.511Z,3.63
2022-12-29T23:43:33.441Z,2.35
2022-12-29T23:45:38.823Z,2.50
2022-12-29T23:47:40.450Z,5.47
2022-12-29T23:49:42.094Z,3.17
2022-12-29T23:51:43.742Z,3.55
2022-12-29T23:53:45.963Z,3.00
2022-12-29T23:55:53.401Z,2.15
2022-12-29T23:57:55.359Z,2.70
2022-12-29T23:59:56.977Z,3.28
